AAL1301 MWCR-KMIA
Flight info
| Callsign | AAL1301 |
|---|---|
| Flight time | 1h 8m |
| Altitude | 37000 |
| Route | XOPLI UG448 IKBIX SNDBR3 |
| Aircraft | A321/M-SDE3FGHIRWY/LB1 |
Departure
| Time | 2026-04-26 19:22 |
|---|---|
| Airport | Owen Roberts International Airport (MWCR) |
Arrival
| Time | 2026-04-26 20:30 |
|---|---|
| Airport | Miami International Airport (KMIA) |
| Time | Latitude | Longitude | Altitude | Speed | Heading |
|---|---|---|---|---|---|
| 2026-04-26 18:39 | 19.29537 | -81.35692 | 15 ft | 0 kts | 348° |
| 2026-04-26 19:11 | 19.29508 | -81.35686 | 15 ft | 3 kts | 348° |
| 2026-04-26 19:12 | 19.29483 | -81.35678 | 16 ft | 4 kts | 330° |
| 2026-04-26 19:12 | 19.29468 | -81.35667 | 15 ft | 4 kts | 319° |
| 2026-04-26 19:12 | 19.29458 | -81.35658 | 15 ft | 0 kts | 314° |
| 2026-04-26 19:15 | 19.29459 | -81.35659 | 15 ft | 1 kts | 312° |
| 2026-04-26 19:15 | 19.29461 | -81.35683 | 15 ft | 5 kts | 259° |
| 2026-04-26 19:15 | 19.29452 | -81.35721 | 15 ft | 6 kts | 254° |
| 2026-04-26 19:16 | 19.29441 | -81.35769 | 15 ft | 7 kts | 257° |
| 2026-04-26 19:16 | 19.29417 | -81.35816 | 15 ft | 8 kts | 206° |
| 2026-04-26 19:16 | 19.29365 | -81.35810 | 14 ft | 5 kts | 168° |
| 2026-04-26 19:16 | 19.29361 | -81.35809 | 14 ft | 0 kts | 168° |
| 2026-04-26 19:18 | 19.29360 | -81.35809 | 14 ft | 0 kts | 168° |
| 2026-04-26 19:18 | 19.29348 | -81.35807 | 14 ft | 3 kts | 168° |
| 2026-04-26 19:18 | 19.29315 | -81.35799 | 15 ft | 7 kts | 168° |
| 2026-04-26 19:18 | 19.29267 | -81.35832 | 15 ft | 12 kts | 241° |
| 2026-04-26 19:19 | 19.29239 | -81.35935 | 16 ft | 17 kts | 255° |
| 2026-04-26 19:19 | 19.29207 | -81.36072 | 17 ft | 21 kts | 256° |
| 2026-04-26 19:19 | 19.29169 | -81.36234 | 16 ft | 24 kts | 256° |
| 2026-04-26 19:19 | 19.29125 | -81.36414 | 18 ft | 26 kts | 255° |
| 2026-04-26 19:20 | 19.29085 | -81.36577 | 15 ft | 17 kts | 255° |
| 2026-04-26 19:20 | 19.29079 | -81.36646 | 15 ft | 13 kts | 277° |
| 2026-04-26 19:20 | 19.29077 | -81.36750 | 16 ft | 5 kts | 213° |
| 2026-04-26 19:20 | 19.29055 | -81.36736 | 16 ft | 5 kts | 110° |
| 2026-04-26 19:21 | 19.29056 | -81.36711 | 15 ft | 1 kts | 78° |
| 2026-04-26 19:21 | 19.29062 | -81.36682 | 15 ft | 16 kts | 78° |
| 2026-04-26 19:21 | 19.29157 | -81.36287 | 16 ft | 93 kts | 76° |
| 2026-04-26 19:21 | 19.29368 | -81.35394 | 17 ft | 153 kts | 76° |
| 2026-04-26 19:22 | 19.29617 | -81.34288 | 656 ft | 149 kts | 77° |
| 2026-04-26 19:22 | 19.30213 | -81.33376 | 1307 ft | 158 kts | 37° |
| 2026-04-26 19:22 | 19.31268 | -81.32999 | 1901 ft | 166 kts | 12° |
| 2026-04-26 19:22 | 19.32440 | -81.32692 | 2147 ft | 184 kts | 27° |
| 2026-04-26 19:23 | 19.33550 | -81.31857 | 2320 ft | 208 kts | 40° |
| 2026-04-26 19:23 | 19.34744 | -81.30831 | 2568 ft | 234 kts | 40° |
| 2026-04-26 19:23 | 19.36067 | -81.29689 | 2900 ft | 257 kts | 40° |
| 2026-04-26 19:23 | 19.37491 | -81.28459 | 3502 ft | 268 kts | 40° |
| 2026-04-26 19:24 | 19.38946 | -81.27203 | 4270 ft | 272 kts | 40° |
| 2026-04-26 19:24 | 19.40423 | -81.25930 | 5044 ft | 275 kts | 39° |
| 2026-04-26 19:24 | 19.43431 | -81.23341 | 6566 ft | 282 kts | 40° |
| 2026-04-26 19:25 | 19.44960 | -81.22025 | 7300 ft | 285 kts | 39° |
| 2026-04-26 19:25 | 19.45987 | -81.21143 | 7774 ft | 287 kts | 39° |
| 2026-04-26 19:25 | 19.48092 | -81.19362 | 8704 ft | 292 kts | 34° |
| 2026-04-26 19:25 | 19.49907 | -81.18451 | 9332 ft | 295 kts | 15° |
| 2026-04-26 19:26 | 19.51952 | -81.18233 | 9972 ft | 298 kts | 355° |
| 2026-04-26 19:26 | 19.54077 | -81.18561 | 10295 ft | 315 kts | 351° |
| 2026-04-26 19:26 | 19.56284 | -81.18938 | 10438 ft | 336 kts | 351° |
| 2026-04-26 19:26 | 19.58640 | -81.19344 | 10777 ft | 348 kts | 351° |
| 2026-04-26 19:27 | 19.61067 | -81.19538 | 11375 ft | 352 kts | 2° |
| 2026-04-26 19:27 | 19.63489 | -81.19202 | 12057 ft | 352 kts | 13° |
| 2026-04-26 19:27 | 19.65821 | -81.18373 | 12717 ft | 353 kts | 21° |
| 2026-04-26 19:27 | 19.68118 | -81.17431 | 13332 ft | 356 kts | 20° |
| 2026-04-26 19:28 | 19.70449 | -81.16480 | 13912 ft | 360 kts | 20° |
| 2026-04-26 19:28 | 19.72799 | -81.15523 | 14474 ft | 363 kts | 20° |
| 2026-04-26 19:28 | 19.74724 | -81.14739 | 14919 ft | 366 kts | 20° |
| 2026-04-26 19:28 | 19.77121 | -81.13764 | 15470 ft | 370 kts | 19° |
| 2026-04-26 19:29 | 19.79533 | -81.12785 | 16007 ft | 373 kts | 19° |
| 2026-04-26 19:29 | 19.81972 | -81.11795 | 16530 ft | 377 kts | 19° |
| 2026-04-26 19:29 | 19.84434 | -81.10796 | 17062 ft | 381 kts | 19° |
| 2026-04-26 19:29 | 19.86917 | -81.09786 | 17568 ft | 384 kts | 19° |
| 2026-04-26 19:30 | 19.89391 | -81.08779 | 18062 ft | 387 kts | 19° |
| 2026-04-26 19:30 | 19.91952 | -81.07735 | 18570 ft | 391 kts | 18° |
| 2026-04-26 19:30 | 19.94467 | -81.06707 | 19062 ft | 393 kts | 18° |
| 2026-04-26 19:30 | 19.96193 | -81.06003 | 19408 ft | 395 kts | 18° |
| 2026-04-26 19:31 | 19.99706 | -81.04958 | 20051 ft | 395 kts | 5° |
| 2026-04-26 19:31 | 20.02444 | -81.04804 | 20558 ft | 394 kts | 355° |
| 2026-04-26 19:31 | 20.05169 | -81.05116 | 21049 ft | 395 kts | 350° |
| 2026-04-26 19:31 | 20.07899 | -81.05487 | 21544 ft | 397 kts | 350° |
| 2026-04-26 19:32 | 20.10645 | -81.05857 | 21997 ft | 399 kts | 350° |
| 2026-04-26 19:32 | 20.13404 | -81.06229 | 22443 ft | 401 kts | 350° |
| 2026-04-26 19:32 | 20.16179 | -81.06601 | 22860 ft | 403 kts | 350° |
| 2026-04-26 19:32 | 20.18962 | -81.06972 | 23262 ft | 405 kts | 350° |
| 2026-04-26 19:33 | 20.21766 | -81.07341 | 23660 ft | 407 kts | 350° |
| 2026-04-26 19:33 | 20.24586 | -81.07712 | 24047 ft | 409 kts | 350° |
| 2026-04-26 19:33 | 20.27411 | -81.08085 | 24423 ft | 411 kts | 350° |
| 2026-04-26 19:33 | 20.30256 | -81.08463 | 24773 ft | 413 kts | 350° |
| 2026-04-26 19:34 | 20.33122 | -81.08847 | 25093 ft | 416 kts | 349° |
| 2026-04-26 19:34 | 20.36000 | -81.09232 | 25414 ft | 419 kts | 349° |
| 2026-04-26 19:34 | 20.38903 | -81.09622 | 25731 ft | 421 kts | 349° |
| 2026-04-26 19:34 | 20.41819 | -81.10013 | 26041 ft | 424 kts | 349° |
| 2026-04-26 19:35 | 20.44764 | -81.10408 | 26353 ft | 427 kts | 349° |
| 2026-04-26 19:35 | 20.47719 | -81.10801 | 26657 ft | 430 kts | 349° |
| 2026-04-26 19:35 | 20.50693 | -81.11197 | 26954 ft | 432 kts | 349° |
| 2026-04-26 19:35 | 20.53687 | -81.11597 | 27255 ft | 435 kts | 349° |
| 2026-04-26 19:36 | 20.56695 | -81.12001 | 27551 ft | 437 kts | 348° |
| 2026-04-26 19:36 | 20.58696 | -81.12269 | 27745 ft | 439 kts | 349° |
| 2026-04-26 19:36 | 20.62761 | -81.12807 | 28134 ft | 442 kts | 348° |
| 2026-04-26 19:36 | 20.65823 | -81.13213 | 28409 ft | 444 kts | 348° |
| 2026-04-26 19:37 | 20.68893 | -81.13621 | 28684 ft | 446 kts | 348° |
| 2026-04-26 19:37 | 20.71983 | -81.14034 | 28948 ft | 448 kts | 348° |
| 2026-04-26 19:37 | 20.75087 | -81.14451 | 29208 ft | 450 kts | 348° |
| 2026-04-26 19:37 | 20.78198 | -81.14870 | 29492 ft | 452 kts | 348° |
| 2026-04-26 19:38 | 20.81330 | -81.15292 | 29766 ft | 455 kts | 348° |
| 2026-04-26 19:38 | 20.84483 | -81.15716 | 30030 ft | 457 kts | 348° |
| 2026-04-26 19:38 | 20.87641 | -81.16142 | 30300 ft | 459 kts | 348° |
| 2026-04-26 19:38 | 20.90816 | -81.16569 | 30618 ft | 459 kts | 348° |
| 2026-04-26 19:39 | 20.93980 | -81.16993 | 30986 ft | 458 kts | 347° |
| 2026-04-26 19:39 | 20.97100 | -81.17410 | 31337 ft | 458 kts | 347° |
| 2026-04-26 19:39 | 21.00302 | -81.17838 | 31686 ft | 457 kts | 347° |
| 2026-04-26 19:39 | 21.03418 | -81.18257 | 32015 ft | 457 kts | 347° |
| 2026-04-26 19:40 | 21.06617 | -81.18689 | 32327 ft | 457 kts | 347° |
| 2026-04-26 19:40 | 21.09775 | -81.19118 | 32664 ft | 457 kts | 347° |
| 2026-04-26 19:40 | 21.12933 | -81.19547 | 32977 ft | 457 kts | 346° |
| 2026-04-26 19:40 | 21.16086 | -81.19974 | 33293 ft | 457 kts | 346° |
| 2026-04-26 19:41 | 21.19247 | -81.20399 | 33590 ft | 457 kts | 346° |
| 2026-04-26 19:41 | 21.22420 | -81.20823 | 33891 ft | 457 kts | 346° |
| 2026-04-26 19:41 | 21.24492 | -81.21100 | 34079 ft | 457 kts | 346° |
| 2026-04-26 19:41 | 21.27647 | -81.21524 | 34389 ft | 457 kts | 346° |
| 2026-04-26 19:42 | 21.31821 | -81.22089 | 34814 ft | 455 kts | 346° |
| 2026-04-26 19:42 | 21.34959 | -81.22513 | 35135 ft | 454 kts | 346° |
| 2026-04-26 19:42 | 21.38091 | -81.22938 | 35459 ft | 453 kts | 346° |
| 2026-04-26 19:42 | 21.41212 | -81.23363 | 35770 ft | 452 kts | 346° |
| 2026-04-26 19:43 | 21.44333 | -81.23788 | 36070 ft | 451 kts | 346° |
| 2026-04-26 19:43 | 21.47445 | -81.24211 | 36369 ft | 450 kts | 346° |
| 2026-04-26 19:43 | 21.50552 | -81.24627 | 36643 ft | 449 kts | 346° |
| 2026-04-26 19:43 | 21.53651 | -81.25041 | 36882 ft | 448 kts | 346° |
| 2026-04-26 19:44 | 21.59767 | -81.25860 | 36952 ft | 437 kts | 346° |
| 2026-04-26 19:44 | 21.65753 | -81.26668 | 36953 ft | 433 kts | 346° |
| 2026-04-26 19:45 | 21.71724 | -81.27484 | 36952 ft | 431 kts | 346° |
| 2026-04-26 19:45 | 21.77633 | -81.28288 | 36952 ft | 431 kts | 346° |
| 2026-04-26 19:46 | 21.83572 | -81.29101 | 36956 ft | 431 kts | 346° |
| 2026-04-26 19:46 | 21.89527 | -81.29909 | 36964 ft | 432 kts | 346° |
| 2026-04-26 19:47 | 21.94486 | -81.30579 | 36968 ft | 432 kts | 346° |
| 2026-04-26 19:47 | 22.01459 | -81.31535 | 36974 ft | 432 kts | 346° |
| 2026-04-26 19:48 | 22.07419 | -81.32354 | 36979 ft | 431 kts | 346° |
| 2026-04-26 19:48 | 22.13363 | -81.33169 | 36982 ft | 430 kts | 346° |
| 2026-04-26 19:49 | 22.19302 | -81.33974 | 36975 ft | 430 kts | 346° |
| 2026-04-26 19:49 | 22.25239 | -81.34780 | 36972 ft | 429 kts | 346° |
| 2026-04-26 19:50 | 22.31158 | -81.35587 | 36968 ft | 428 kts | 346° |
| 2026-04-26 19:50 | 22.37072 | -81.36406 | 36965 ft | 428 kts | 346° |
| 2026-04-26 19:51 | 22.42972 | -81.37217 | 36963 ft | 428 kts | 346° |
| 2026-04-26 19:51 | 22.48835 | -81.38025 | 36962 ft | 427 kts | 346° |
| 2026-04-26 19:52 | 22.54731 | -81.38832 | 36960 ft | 427 kts | 346° |
| 2026-04-26 19:52 | 22.60638 | -81.39643 | 36969 ft | 428 kts | 346° |
| 2026-04-26 19:53 | 22.66602 | -81.40016 | 36972 ft | 437 kts | 359° |
| 2026-04-26 19:53 | 22.72670 | -81.39267 | 36972 ft | 439 kts | 0° |
| 2026-04-26 19:54 | 22.78739 | -81.38505 | 36974 ft | 439 kts | 360° |
| 2026-04-26 19:54 | 22.84805 | -81.37754 | 36976 ft | 438 kts | 0° |
| 2026-04-26 19:55 | 22.90867 | -81.37004 | 36974 ft | 438 kts | 0° |
| 2026-04-26 19:55 | 22.96914 | -81.36253 | 36968 ft | 437 kts | 0° |
| 2026-04-26 19:56 | 23.02957 | -81.35504 | 36967 ft | 436 kts | 0° |
| 2026-04-26 19:56 | 23.08996 | -81.34760 | 36967 ft | 436 kts | 0° |
| 2026-04-26 19:57 | 23.15020 | -81.34021 | 36973 ft | 435 kts | 0° |
| 2026-04-26 19:57 | 23.21038 | -81.33265 | 36973 ft | 435 kts | 0° |
| 2026-04-26 19:58 | 23.27011 | -81.32508 | 36975 ft | 435 kts | 0° |
| 2026-04-26 19:58 | 23.33018 | -81.31757 | 36976 ft | 434 kts | 0° |
| 2026-04-26 19:59 | 23.39019 | -81.31004 | 36978 ft | 434 kts | 1° |
| 2026-04-26 19:59 | 23.45019 | -81.30250 | 36887 ft | 439 kts | 1° |
| 2026-04-26 20:00 | 23.47052 | -81.29999 | 36722 ft | 447 kts | 1° |
| 2026-04-26 20:00 | 23.50166 | -81.29617 | 36474 ft | 453 kts | 1° |
| 2026-04-26 20:00 | 23.53314 | -81.29226 | 36222 ft | 456 kts | 1° |
| 2026-04-26 20:00 | 23.56472 | -81.28826 | 35973 ft | 458 kts | 1° |
| 2026-04-26 20:01 | 23.59647 | -81.28425 | 35722 ft | 461 kts | 1° |
| 2026-04-26 20:01 | 23.62842 | -81.28022 | 35469 ft | 464 kts | 1° |
| 2026-04-26 20:01 | 23.66056 | -81.27615 | 35220 ft | 466 kts | 2° |
| 2026-04-26 20:01 | 23.69285 | -81.27209 | 34970 ft | 467 kts | 2° |
| 2026-04-26 20:02 | 23.72510 | -81.26801 | 34717 ft | 466 kts | 2° |
| 2026-04-26 20:02 | 23.75725 | -81.26391 | 34466 ft | 465 kts | 2° |
| 2026-04-26 20:02 | 23.78933 | -81.25981 | 34223 ft | 463 kts | 2° |
| 2026-04-26 20:02 | 23.81051 | -81.25711 | 33929 ft | 462 kts | 2° |
| 2026-04-26 20:03 | 23.85333 | -81.25173 | 33009 ft | 461 kts | 2° |
| 2026-04-26 20:03 | 23.88505 | -81.24776 | 32583 ft | 455 kts | 2° |
| 2026-04-26 20:03 | 23.91647 | -81.24385 | 31876 ft | 456 kts | 2° |
| 2026-04-26 20:03 | 23.94814 | -81.23992 | 31058 ft | 460 kts | 2° |
| 2026-04-26 20:04 | 23.97945 | -81.23602 | 30338 ft | 460 kts | 2° |
| 2026-04-26 20:04 | 24.01097 | -81.23202 | 30037 ft | 451 kts | 2° |
| 2026-04-26 20:04 | 24.04181 | -81.22777 | 29921 ft | 438 kts | 4° |
| 2026-04-26 20:04 | 24.07186 | -81.22338 | 29250 ft | 438 kts | 4° |
| 2026-04-26 20:05 | 24.10195 | -81.21899 | 28868 ft | 431 kts | 2° |
| 2026-04-26 20:05 | 24.13124 | -81.21964 | 28595 ft | 413 kts | 346° |
| 2026-04-26 20:05 | 24.15787 | -81.22969 | 28168 ft | 401 kts | 328° |
| 2026-04-26 20:05 | 24.18119 | -81.24603 | 27663 ft | 397 kts | 324° |
| 2026-04-26 20:06 | 24.20386 | -81.26316 | 27164 ft | 394 kts | 323° |
| 2026-04-26 20:06 | 24.22629 | -81.28022 | 26674 ft | 391 kts | 323° |
| 2026-04-26 20:06 | 24.24857 | -81.29722 | 26182 ft | 388 kts | 323° |
| 2026-04-26 20:06 | 24.27068 | -81.31411 | 25699 ft | 386 kts | 323° |
| 2026-04-26 20:07 | 24.29265 | -81.33090 | 25232 ft | 383 kts | 323° |
| 2026-04-26 20:07 | 24.31468 | -81.34726 | 24772 ft | 382 kts | 329° |
| 2026-04-26 20:07 | 24.33957 | -81.35720 | 24321 ft | 384 kts | 348° |
| 2026-04-26 20:07 | 24.36592 | -81.35722 | 23999 ft | 389 kts | 7° |
| 2026-04-26 20:08 | 24.39223 | -81.34942 | 23951 ft | 394 kts | 13° |
| 2026-04-26 20:08 | 24.41852 | -81.34050 | 23967 ft | 396 kts | 13° |
| 2026-04-26 20:08 | 24.44480 | -81.33152 | 23964 ft | 396 kts | 13° |
| 2026-04-26 20:08 | 24.47111 | -81.32251 | 23960 ft | 396 kts | 13° |
| 2026-04-26 20:09 | 24.49741 | -81.31350 | 23962 ft | 396 kts | 13° |
| 2026-04-26 20:09 | 24.52376 | -81.30439 | 23956 ft | 397 kts | 15° |
| 2026-04-26 20:09 | 24.54842 | -81.29056 | 23956 ft | 405 kts | 33° |
| 2026-04-26 20:09 | 24.56831 | -81.26833 | 23968 ft | 413 kts | 49° |
| 2026-04-26 20:10 | 24.58622 | -81.24376 | 23956 ft | 409 kts | 40° |
| 2026-04-26 20:10 | 24.60880 | -81.22546 | 23966 ft | 401 kts | 23° |
| 2026-04-26 20:10 | 24.63412 | -81.21304 | 23957 ft | 399 kts | 19° |
| 2026-04-26 20:10 | 24.65967 | -81.20113 | 23965 ft | 399 kts | 19° |
| 2026-04-26 20:11 | 24.68525 | -81.18929 | 23968 ft | 399 kts | 19° |
| 2026-04-26 20:11 | 24.71084 | -81.17746 | 23966 ft | 399 kts | 19° |
| 2026-04-26 20:11 | 24.73641 | -81.16559 | 23960 ft | 399 kts | 19° |
| 2026-04-26 20:12 | 24.78752 | -81.14181 | 23951 ft | 399 kts | 19° |
| 2026-04-26 20:12 | 24.81304 | -81.12992 | 23967 ft | 399 kts | 19° |
| 2026-04-26 20:12 | 24.83863 | -81.11798 | 23967 ft | 399 kts | 19° |
| 2026-04-26 20:12 | 24.86419 | -81.10604 | 23660 ft | 401 kts | 19° |
| 2026-04-26 20:13 | 24.89025 | -81.09386 | 22717 ft | 410 kts | 19° |
| 2026-04-26 20:13 | 24.91648 | -81.08160 | 22069 ft | 411 kts | 19° |
| 2026-04-26 20:13 | 24.94277 | -81.06925 | 21533 ft | 409 kts | 20° |
| 2026-04-26 20:13 | 24.96884 | -81.05700 | 21036 ft | 406 kts | 20° |
| 2026-04-26 20:14 | 24.99468 | -81.04487 | 20565 ft | 402 kts | 20° |
| 2026-04-26 20:14 | 25.02038 | -81.03284 | 20095 ft | 400 kts | 20° |
| 2026-04-26 20:14 | 25.04584 | -81.02094 | 19564 ft | 394 kts | 20° |
| 2026-04-26 20:14 | 25.07086 | -81.00923 | 18762 ft | 389 kts | 20° |
| 2026-04-26 20:15 | 25.09544 | -80.99766 | 18209 ft | 378 kts | 20° |
| 2026-04-26 20:15 | 25.11888 | -80.98660 | 17735 ft | 366 kts | 20° |
| 2026-04-26 20:15 | 25.14216 | -80.97565 | 17259 ft | 363 kts | 20° |
| 2026-04-26 20:15 | 25.16528 | -80.96479 | 16845 ft | 359 kts | 20° |
| 2026-04-26 20:16 | 25.18814 | -80.95405 | 16395 ft | 356 kts | 20° |
| 2026-04-26 20:16 | 25.21080 | -80.94343 | 15927 ft | 353 kts | 20° |
| 2026-04-26 20:16 | 25.23334 | -80.93287 | 15467 ft | 350 kts | 20° |
| 2026-04-26 20:16 | 25.25564 | -80.92239 | 15011 ft | 347 kts | 20° |
| 2026-04-26 20:17 | 25.27778 | -80.91195 | 14549 ft | 345 kts | 20° |
| 2026-04-26 20:17 | 25.29979 | -80.90158 | 14083 ft | 343 kts | 20° |
| 2026-04-26 20:17 | 25.32168 | -80.89129 | 13636 ft | 340 kts | 20° |
| 2026-04-26 20:17 | 25.33607 | -80.88450 | 13335 ft | 339 kts | 20° |
| 2026-04-26 20:18 | 25.36495 | -80.87088 | 12738 ft | 336 kts | 20° |
| 2026-04-26 20:18 | 25.38630 | -80.86083 | 12346 ft | 331 kts | 19° |
| 2026-04-26 20:18 | 25.40718 | -80.85102 | 12219 ft | 319 kts | 19° |
| 2026-04-26 20:18 | 25.42971 | -80.84053 | 12071 ft | 307 kts | 19° |
| 2026-04-26 20:19 | 25.45052 | -80.83096 | 11870 ft | 298 kts | 18° |
| 2026-04-26 20:19 | 25.45963 | -80.82706 | 11754 ft | 299 kts | 17° |
| 2026-04-26 20:19 | 25.48582 | -80.81690 | 11239 ft | 298 kts | 15° |
| 2026-04-26 20:19 | 25.50550 | -80.80964 | 10835 ft | 298 kts | 15° |
| 2026-04-26 20:20 | 25.52519 | -80.80247 | 10445 ft | 298 kts | 16° |
| 2026-04-26 20:20 | 25.54486 | -80.79530 | 10069 ft | 297 kts | 16° |
| 2026-04-26 20:20 | 25.56701 | -80.78717 | 9599 ft | 297 kts | 17° |
| 2026-04-26 20:20 | 25.58410 | -80.78083 | 9282 ft | 297 kts | 17° |
| 2026-04-26 20:21 | 25.60369 | -80.77352 | 8883 ft | 297 kts | 18° |
| 2026-04-26 20:21 | 25.61531 | -80.76917 | 8648 ft | 297 kts | 18° |
| 2026-04-26 20:21 | 25.64184 | -80.75615 | 8156 ft | 296 kts | 33° |
| 2026-04-26 20:21 | 25.65256 | -80.74673 | 7888 ft | 297 kts | 44° |
| 2026-04-26 20:22 | 25.67044 | -80.72230 | 7375 ft | 297 kts | 53° |
| 2026-04-26 20:22 | 25.68260 | -80.70441 | 7125 ft | 293 kts | 53° |
| 2026-04-26 20:22 | 25.69447 | -80.68691 | 6645 ft | 291 kts | 53° |
| 2026-04-26 20:22 | 25.70253 | -80.67514 | 6327 ft | 288 kts | 53° |
| 2026-04-26 20:23 | 25.71454 | -80.65770 | 5923 ft | 283 kts | 53° |
| 2026-04-26 20:23 | 25.72989 | -80.63537 | 5412 ft | 272 kts | 53° |
| 2026-04-26 20:23 | 25.74147 | -80.61846 | 5055 ft | 264 kts | 53° |
| 2026-04-26 20:23 | 25.75071 | -80.60498 | 4774 ft | 258 kts | 53° |
| 2026-04-26 20:24 | 25.76310 | -80.58689 | 4382 ft | 249 kts | 53° |
| 2026-04-26 20:24 | 25.76643 | -80.58189 | 4272 ft | 246 kts | 57° |
| 2026-04-26 20:24 | 25.77579 | -80.55357 | 4016 ft | 222 kts | 86° |
| 2026-04-26 20:24 | 25.77636 | -80.54236 | 4024 ft | 221 kts | 89° |
| 2026-04-26 20:25 | 25.77735 | -80.51982 | 3679 ft | 215 kts | 89° |
| 2026-04-26 20:25 | 25.77757 | -80.51503 | 3598 ft | 214 kts | 89° |
| 2026-04-26 20:25 | 25.77877 | -80.48743 | 3135 ft | 207 kts | 89° |
| 2026-04-26 20:25 | 25.77944 | -80.47182 | 2861 ft | 198 kts | 89° |
| 2026-04-26 20:26 | 25.78008 | -80.45686 | 2589 ft | 190 kts | 89° |
| 2026-04-26 20:26 | 25.78029 | -80.45193 | 2503 ft | 188 kts | 89° |
| 2026-04-26 20:26 | 25.78126 | -80.42953 | 2129 ft | 161 kts | 90° |
| 2026-04-26 20:26 | 25.78177 | -80.41749 | 1910 ft | 153 kts | 90° |
| 2026-04-26 20:27 | 25.78225 | -80.40605 | 1716 ft | 145 kts | 90° |
| 2026-04-26 20:27 | 25.78272 | -80.39508 | 1524 ft | 140 kts | 91° |
| 2026-04-26 20:27 | 25.78317 | -80.38444 | 1346 ft | 136 kts | 91° |
| 2026-04-26 20:27 | 25.78361 | -80.37409 | 1163 ft | 134 kts | 91° |
| 2026-04-26 20:28 | 25.78404 | -80.36385 | 989 ft | 133 kts | 90° |
| 2026-04-26 20:28 | 25.78446 | -80.35364 | 813 ft | 132 kts | 91° |
| 2026-04-26 20:28 | 25.78489 | -80.34347 | 634 ft | 132 kts | 91° |
| 2026-04-26 20:28 | 25.78531 | -80.33318 | 469 ft | 136 kts | 90° |
| 2026-04-26 20:29 | 25.78572 | -80.32262 | 239 ft | 138 kts | 90° |
| 2026-04-26 20:29 | 25.78631 | -80.31207 | 89 ft | 135 kts | 88° |
| 2026-04-26 20:29 | 25.78667 | -80.30226 | 20 ft | 115 kts | 88° |
| 2026-04-26 20:29 | 25.78692 | -80.29520 | 16 ft | 67 kts | 88° |
| 2026-04-26 20:30 | 25.78706 | -80.29194 | 19 ft | 19 kts | 81° |
| 2026-04-26 20:30 | 25.78716 | -80.29046 | 17 ft | 20 kts | 86° |
| 2026-04-26 20:30 | 25.78723 | -80.28892 | 17 ft | 20 kts | 84° |
| 2026-04-26 20:30 | 25.78760 | -80.28745 | 18 ft | 20 kts | 56° |
| 2026-04-26 20:31 | 25.78883 | -80.28676 | 16 ft | 22 kts | 358° |
| 2026-04-26 20:31 | 25.78991 | -80.28684 | 16 ft | 10 kts | 357° |
| 2026-04-26 20:31 | 25.79029 | -80.28686 | 15 ft | 0 kts | 357° |
| 2026-04-26 20:33 | 25.79033 | -80.28686 | 15 ft | 2 kts | 357° |
| 2026-04-26 20:33 | 25.79064 | -80.28687 | 17 ft | 7 kts | 359° |
| 2026-04-26 20:33 | 25.79132 | -80.28691 | 15 ft | 13 kts | 357° |
| 2026-04-26 20:34 | 25.79240 | -80.28695 | 14 ft | 18 kts | 359° |
| 2026-04-26 20:34 | 25.79361 | -80.28707 | 14 ft | 15 kts | 333° |
| 2026-04-26 20:34 | 25.79417 | -80.28787 | 17 ft | 11 kts | 320° |
| 2026-04-26 20:34 | 25.79488 | -80.28801 | 18 ft | 10 kts | 359° |
| 2026-04-26 20:35 | 25.79559 | -80.28804 | 20 ft | 10 kts | 358° |
| 2026-04-26 20:35 | 25.79627 | -80.28796 | 22 ft | 9 kts | 36° |
| 2026-04-26 20:35 | 25.79642 | -80.28726 | 20 ft | 11 kts | 86° |
| 2026-04-26 20:35 | 25.79649 | -80.28630 | 20 ft | 14 kts | 85° |
| 2026-04-26 20:36 | 25.79662 | -80.28527 | 21 ft | 13 kts | 79° |
| 2026-04-26 20:36 | 25.79669 | -80.28435 | 19 ft | 11 kts | 88° |
| 2026-04-26 20:36 | 25.79673 | -80.28357 | 19 ft | 9 kts | 87° |
| 2026-04-26 20:36 | 25.79676 | -80.28294 | 18 ft | 8 kts | 88° |
| 2026-04-26 20:37 | 25.79655 | -80.28229 | 20 ft | 9 kts | 116° |
| 2026-04-26 20:37 | 25.79636 | -80.28176 | 20 ft | 6 kts | 105° |
| 2026-04-26 20:37 | 25.79625 | -80.28139 | 20 ft | 6 kts | 114° |
| 2026-04-26 20:37 | 25.79614 | -80.28113 | 22 ft | 0 kts | 114° |
| 2026-04-26 20:39 | 25.79613 | -80.28110 | 22 ft | 6 kts | 114° |
| 2026-04-26 20:39 | 25.79590 | -80.28065 | 20 ft | 7 kts | 140° |
| 2026-04-26 20:40 | 25.79554 | -80.28066 | 21 ft | 7 kts | 184° |
| 2026-04-26 20:40 | 25.79547 | -80.28067 | 20 ft | 0 kts | 184° |